Maersk Rosario — V2BG2 — position and weather

sailwx.info

Track history (hours):
 
Tides and Currents Weather Stations Pressure Air Temp Water Temp Dewpoint Dewpoint Depression Visibility Wind Speed Wind Dir Waves Ship Positions

Maersk Rosario

Last reported at 2016-Aug-23 12:28 UTC. Time now 2016-Aug-27 10:00 UTC.
Position N 27°54' W 015°16'.

Length 161.1 m; beam 25 m; draft 9.5 m.

Type: Cargo ship. MMSI: 304814000.

Date/timePositionNaut miles runAvg speedWind from/ knotsBaromVisibWave heightAir tempDewpointWater temp
2016-Aug-23 12:28N 27°54' W 015°16'1415.1
2016-Aug-23 11:33N 28°06' W 015°23'2 2.4
2016-Aug-23 10:33N 28°08' W 015°25'0 0.0
2016-Aug-23 09:33N 28°08' W 015°25'0 0.0
2016-Aug-23 08:33N 28°08' W 015°25'0 0.0
2016-Aug-23 07:33N 28°08' W 015°25'0 0.0
2016-Aug-23 06:33N 28°08' W 015°25'1 0.6
2016-Aug-23 05:31N 28°09' W 015°25'0 0.0
2016-Aug-23 04:31N 28°09' W 015°25'0 0.0
2016-Aug-23 03:31N 28°09' W 015°25'0 0.0
2016-Aug-23 02:31N 28°09' W 015°25'0 0.0
2016-Aug-23 01:28N 28°09' W 015°25'0 0.0
2016-Aug-23 00:31N 28°09' W 015°25'0 0.0
2016-Aug-22 23:31N 28°09' W 015°25'0 0.0
2016-Aug-22 22:31N 28°09' W 015°25'0 0.0
2016-Aug-22 21:31N 28°09' W 015°25'0 0.0
2016-Aug-22 20:28N 28°09' W 015°25'0 0.0
2016-Aug-22 19:31N 28°09' W 015°25'0 0.0
2016-Aug-22 18:31N 28°09' W 015°25'0 0.0
2016-Aug-22 17:31N 28°09' W 015°25'0 0.0
2016-Aug-22 16:31N 28°09' W 015°25'0 0.0
2016-Aug-22 15:31N 28°09' W 015°25'0 0.0
2016-Aug-22 14:25N 28°09' W 015°25'0 0.0
2016-Aug-22 13:31N 28°09' W 015°25'0 0.0
2016-Aug-22 12:31N 28°09' W 015°25'0 0.0
2016-Aug-22 11:31N 28°09' W 015°25'0 0.0
2016-Aug-22 10:31N 28°09' W 015°25'3 2.8
2016-Aug-22 09:33N 28°08' W 015°22'1514.5
2016-Aug-22 08:33N 28°18' W 015°10'2115.3
2016-Aug-22 07:10N 28°33' W 014°53'4315.4
2016-Aug-22 04:22N 29°04' W 014°18'60515.4
2016-Aug-20 13:07N 35°57' W 005°35'813.8
2016-Aug-20 12:33N 36°00' W 005°26'10 0.4
2016-Aug-19 10:25N 36°06' W 005°15'9 0.8
2016-Aug-18 23:16N 36°09' W 005°26'1 0.5
2016-Aug-18 21:12N 36°08' W 005°25'0 0.4
2016-Aug-18 20:33N 36°08' W 005°25'0 0.0
2016-Aug-18 19:33N 36°08' W 005°25'0 0.0
2016-Aug-18 18:33N 36°08' W 005°25'0 0.1
2016-Aug-18 17:03N 36°08' W 005°25'0 0.1
2016-Aug-18 16:33N 36°08' W 005°25'0 0.0
2016-Aug-18 15:33N 36°08' W 005°25'0 0.0
2016-Aug-18 14:33N 36°08' W 005°25'0 0.0
2016-Aug-18 04:13N 36°08' W 005°25'10 6.1
2016-Aug-18 02:33N 35°58' W 005°25'6214.2
2016-Aug-17 22:14N 35°25' W 006°29'  
2016-Aug-15 17:32N 28°35' W 014°51'1313.6
2016-Aug-15 16:33N 28°25' W 015°02'1413.7
2016-Aug-15 15:33N 28°15' W 015°12'1313.2
2016-Aug-15 14:34N 28°07' W 015°24'2 1.6
2016-Aug-15 13:31N 28°09' W 015°25'0 0.0
2016-Aug-15 12:31N 28°09' W 015°25'0 0.0
2016-Aug-15 11:22N 28°09' W 015°25'0 0.0
2016-Aug-15 10:31N 28°09' W 015°25'0 0.0
2016-Aug-15 09:28N 28°09' W 015°25'0 0.0
2016-Aug-15 08:31N 28°09' W 015°25'0 0.0
2016-Aug-15 07:31N 28°09' W 015°25'0 0.0
2016-Aug-15 06:28N 28°09' W 015°25'1 0.6
2016-Aug-15 04:33N 28°08' W 015°24'7 6.5
2016-Aug-15 03:33N 28°04' W 015°19'1313.1
2016-Aug-15 02:33N 27°51' W 015°16'34613.1
2016-Aug-14 00:10N 22°22' W 017°13'  
Track history (hours):
 
Tides and Currents Weather Stations Pressure Air Temp Water Temp Dewpoint Dewpoint Depression Visibility Wind Speed Wind Dir Waves Ship Positions

Maersk Rosario

Last reported at 2016-Aug-23 12:28 UTC. Time now 2016-Aug-27 10:00 UTC.
Position N 27°54' W 015°16'.

Length 161.1 m; beam 25 m; draft 9.5 m.

Type: Cargo ship. MMSI: 304814000.

Date/timePositionNaut miles runAvg speedWind from/ knotsBaromVisibWave heightAir tempDewpointWater temp
2016-Aug-23 12:28N 27°54' W 015°16'1415.1
2016-Aug-23 11:33N 28°06' W 015°23'2 2.4
2016-Aug-23 10:33N 28°08' W 015°25'0 0.0
2016-Aug-23 09:33N 28°08' W 015°25'0 0.0
2016-Aug-23 08:33N 28°08' W 015°25'0 0.0
2016-Aug-23 07:33N 28°08' W 015°25'0 0.0
2016-Aug-23 06:33N 28°08' W 015°25'1 0.6
2016-Aug-23 05:31N 28°09' W 015°25'0 0.0
2016-Aug-23 04:31N 28°09' W 015°25'0 0.0
2016-Aug-23 03:31N 28°09' W 015°25'0 0.0
2016-Aug-23 02:31N 28°09' W 015°25'0 0.0
2016-Aug-23 01:28N 28°09' W 015°25'0 0.0
2016-Aug-23 00:31N 28°09' W 015°25'0 0.0
2016-Aug-22 23:31N 28°09' W 015°25'0 0.0
2016-Aug-22 22:31N 28°09' W 015°25'0 0.0
2016-Aug-22 21:31N 28°09' W 015°25'0 0.0
2016-Aug-22 20:28N 28°09' W 015°25'0 0.0
2016-Aug-22 19:31N 28°09' W 015°25'0 0.0
2016-Aug-22 18:31N 28°09' W 015°25'0 0.0
2016-Aug-22 17:31N 28°09' W 015°25'0 0.0
2016-Aug-22 16:31N 28°09' W 015°25'0 0.0
2016-Aug-22 15:31N 28°09' W 015°25'0 0.0
2016-Aug-22 14:25N 28°09' W 015°25'0 0.0
2016-Aug-22 13:31N 28°09' W 015°25'0 0.0
2016-Aug-22 12:31N 28°09' W 015°25'0 0.0
2016-Aug-22 11:31N 28°09' W 015°25'0 0.0
2016-Aug-22 10:31N 28°09' W 015°25'3 2.8
2016-Aug-22 09:33N 28°08' W 015°22'1514.5
2016-Aug-22 08:33N 28°18' W 015°10'2115.3
2016-Aug-22 07:10N 28°33' W 014°53'4315.4
2016-Aug-22 04:22N 29°04' W 014°18'60515.4
2016-Aug-20 13:07N 35°57' W 005°35'813.8
2016-Aug-20 12:33N 36°00' W 005°26'10 0.4
2016-Aug-19 10:25N 36°06' W 005°15'9 0.8
2016-Aug-18 23:16N 36°09' W 005°26'1 0.5
2016-Aug-18 21:12N 36°08' W 005°25'0 0.4
2016-Aug-18 20:33N 36°08' W 005°25'0 0.0
2016-Aug-18 19:33N 36°08' W 005°25'0 0.0
2016-Aug-18 18:33N 36°08' W 005°25'0 0.1
2016-Aug-18 17:03N 36°08' W 005°25'0 0.1
2016-Aug-18 16:33N 36°08' W 005°25'0 0.0
2016-Aug-18 15:33N 36°08' W 005°25'0 0.0
2016-Aug-18 14:33N 36°08' W 005°25'0 0.0
2016-Aug-18 04:13N 36°08' W 005°25'10 6.1
2016-Aug-18 02:33N 35°58' W 005°25'6214.2
2016-Aug-17 22:14N 35°25' W 006°29'  
2016-Aug-15 17:32N 28°35' W 014°51'1313.6
2016-Aug-15 16:33N 28°25' W 015°02'1413.7
2016-Aug-15 15:33N 28°15' W 015°12'1313.2
2016-Aug-15 14:34N 28°07' W 015°24'2 1.6
2016-Aug-15 13:31N 28°09' W 015°25'0 0.0
2016-Aug-15 12:31N 28°09' W 015°25'0 0.0
2016-Aug-15 11:22N 28°09' W 015°25'0 0.0
2016-Aug-15 10:31N 28°09' W 015°25'0 0.0
2016-Aug-15 09:28N 28°09' W 015°25'0 0.0
2016-Aug-15 08:31N 28°09' W 015°25'0 0.0
2016-Aug-15 07:31N 28°09' W 015°25'0 0.0
2016-Aug-15 06:28N 28°09' W 015°25'1 0.6
2016-Aug-15 04:33N 28°08' W 015°24'7 6.5
2016-Aug-15 03:33N 28°04' W 015°19'1313.1
2016-Aug-15 02:33N 27°51' W 015°16'34613.1
2016-Aug-14 00:10N 22°22' W 017°13'  

Dump ship's entire track history